sensor_id;sensor_type;location;lat;lon;timestamp;pressure;altitude;pressure_sealevel;temperature;humidity
48244;BME280;34053;51.088;6.572;2023-02-04T00:00:50;102573.06;;;7.90;77.28
48244;BME280;34053;51.088;6.572;2023-02-04T00:03:21;102563.66;;;8.03;77.10
48244;BME280;34053;51.088;6.572;2023-02-04T00:05:51;102565.28;;;7.95;77.13
48244;BME280;34053;51.088;6.572;2023-02-04T00:08:22;102566.84;;;7.83;76.59
48244;BME280;34053;51.088;6.572;2023-02-04T00:10:52;102584.31;;;7.86;76.03
48244;BME280;34053;51.088;6.572;2023-02-04T00:13:23;102575.47;;;7.76;76.30
48244;BME280;34053;51.088;6.572;2023-02-04T00:15:53;102577.41;;;7.90;76.24
48244;BME280;34053;51.088;6.572;2023-02-04T00:18:24;102582.47;;;7.79;76.24
48244;BME280;34053;51.088;6.572;2023-02-04T00:20:54;102594.81;;;7.87;76.66
48244;BME280;34053;51.088;6.572;2023-02-04T00:23:25;102589.47;;;7.81;75.90
48244;BME280;34053;51.088;6.572;2023-02-04T00:25:55;102592.06;;;7.80;76.76
48244;BME280;34053;51.088;6.572;2023-02-04T00:28:26;102595.41;;;7.69;76.61
48244;BME280;34053;51.088;6.572;2023-02-04T00:30:56;102600.66;;;7.71;75.95
48244;BME280;34053;51.088;6.572;2023-02-04T00:33:27;102604.75;;;7.53;76.89
48244;BME280;34053;51.088;6.572;2023-02-04T00:35:58;102610.13;;;7.63;76.69
48244;BME280;34053;51.088;6.572;2023-02-04T00:38:28;102604.91;;;7.64;77.03
48244;BME280;34053;51.088;6.572;2023-02-04T00:40:59;102609.22;;;7.61;76.67
48244;BME280;34053;51.088;6.572;2023-02-04T00:43:29;102606.59;;;7.59;77.19
48244;BME280;34053;51.088;6.572;2023-02-04T00:46:00;102610.00;;;7.56;77.29
48244;BME280;34053;51.088;6.572;2023-02-04T00:48:30;102620.50;;;7.60;77.44
48244;BME280;34053;51.088;6.572;2023-02-04T00:51:00;102615.19;;;7.53;76.89
48244;BME280;34053;51.088;6.572;2023-02-04T00:53:31;102620.50;;;7.60;76.62
48244;BME280;34053;51.088;6.572;2023-02-04T00:56:02;102621.28;;;7.54;77.16
48244;BME280;34053;51.088;6.572;2023-02-04T00:58:32;102615.34;;;7.63;76.65
48244;BME280;34053;51.088;6.572;2023-02-04T01:01:03;102629.56;;;7.80;77.04
48244;BME280;34053;51.088;6.572;2023-02-04T01:03:34;102636.88;;;7.49;77.22
48244;BME280;34053;51.088;6.572;2023-02-04T01:06:04;102629.25;;;7.62;77.65
48244;BME280;34053;51.088;6.572;2023-02-04T01:08:35;102629.16;;;7.55;77.43
48244;BME280;34053;51.088;6.572;2023-02-04T01:11:06;102637.88;;;7.57;77.21
48244;BME280;34053;51.088;6.572;2023-02-04T01:13:36;102637.75;;;7.48;77.26
48244;BME280;34053;51.088;6.572;2023-02-04T01:16:07;102639.88;;;7.71;77.16
48244;BME280;34053;51.088;6.572;2023-02-04T01:18:38;102639.72;;;7.62;77.05
48244;BME280;34053;51.088;6.572;2023-02-04T01:21:08;102637.94;;;7.61;77.48
48244;BME280;34053;51.088;6.572;2023-02-04T01:23:39;102636.34;;;7.69;77.27
48244;BME280;34053;51.088;6.572;2023-02-04T01:26:09;102644.78;;;7.51;77.45
48244;BME280;34053;51.088;6.572;2023-02-04T01:28:40;102639.00;;;7.72;77.37
48244;BME280;34053;51.088;6.572;2023-02-04T01:31:12;102637.88;;;7.57;77.49
48244;BME280;34053;51.088;6.572;2023-02-04T01:33:42;102640.34;;;7.47;77.73
48244;BME280;34053;51.088;6.572;2023-02-04T01:36:13;102642.84;;;7.39;77.92
48244;BME280;34053;51.088;6.572;2023-02-04T01:38:43;102651.78;;;7.53;78.01
48244;BME280;34053;51.088;6.572;2023-02-04T01:41:15;102653.53;;;7.54;78.03
48244;BME280;34053;51.088;6.572;2023-02-04T01:43:47;102656.94;;;7.50;78.08
48244;BME280;34053;51.088;6.572;2023-02-04T01:46:18;102658.84;;;7.61;77.93
48244;BME280;34053;51.088;6.572;2023-02-04T01:48:48;102659.53;;;7.50;78.26
48244;BME280;34053;51.088;6.572;2023-02-04T01:51:24;102656.22;;;7.59;78.36
48244;BME280;34053;51.088;6.572;2023-02-04T01:53:58;102663.84;;;7.47;78.93
48244;BME280;34053;51.088;6.572;2023-02-04T01:56:30;102664.75;;;7.49;78.48
48244;BME280;34053;51.088;6.572;2023-02-04T01:59:00;102666.69;;;7.59;78.03
48244;BME280;34053;51.088;6.572;2023-02-04T02:01:50;102667.75;;;7.72;78.02
48244;BME280;34053;51.088;6.572;2023-02-04T02:04:31;102665.94;;;7.68;78.39
48244;BME280;34053;51.088;6.572;2023-02-04T02:07:04;102670.91;;;7.52;77.98
48244;BME280;34053;51.088;6.572;2023-02-04T02:09:35;102667.53;;;7.60;78.35
48244;BME280;34053;51.088;6.572;2023-02-04T02:12:06;102665.69;;;7.52;78.45
48244;BME280;34053;51.088;6.572;2023-02-04T02:14:37;102675.22;;;7.50;78.33
48244;BME280;34053;51.088;6.572;2023-02-04T02:17:07;102681.53;;;7.62;78.54
48244;BME280;34053;51.088;6.572;2023-02-04T02:19:39;102679.91;;;7.68;78.69
48244;BME280;34053;51.088;6.572;2023-02-04T02:24:50;102688.50;;;7.63;78.47
48244;BME280;34053;51.088;6.572;2023-02-04T02:27:21;102694.00;;;7.80;78.52
48244;BME280;34053;51.088;6.572;2023-02-04T02:29:51;102687.75;;;7.70;78.57
48244;BME280;34053;51.088;6.572;2023-02-04T02:32:22;102696.66;;;7.83;78.40
48244;BME280;34053;51.088;6.572;2023-02-04T02:34:52;102691.41;;;7.81;78.24
48244;BME280;34053;51.088;6.572;2023-02-04T02:37:23;102691.16;;;7.66;78.81
48244;BME280;34053;51.088;6.572;2023-02-04T02:39:54;102697.44;;;7.77;78.83
48244;BME280;34053;51.088;6.572;2023-02-04T02:42:24;102700.84;;;7.73;78.33
48244;BME280;34053;51.088;6.572;2023-02-04T02:44:55;102709.22;;;7.52;79.24
48244;BME280;34053;51.088;6.572;2023-02-04T02:47:26;102710.09;;;7.54;79.42
48244;BME280;34053;51.088;6.572;2023-02-04T02:49:57;102713.47;;;7.48;79.21
48244;BME280;34053;51.088;6.572;2023-02-04T02:52:28;102712.97;;;7.68;79.22
48244;BME280;34053;51.088;6.572;2023-02-04T02:54:58;102712.78;;;7.55;78.87
48244;BME280;34053;51.088;6.572;2023-02-04T02:57:29;102707.03;;;7.78;78.57
48244;BME280;34053;51.088;6.572;2023-02-04T02:59:59;102716.31;;;7.61;78.73
48244;BME280;34053;51.088;6.572;2023-02-04T03:02:30;102712.13;;;7.69;78.99
48244;BME280;34053;51.088;6.572;2023-02-04T03:05:00;102717.25;;;7.63;78.88
48244;BME280;34053;51.088;6.572;2023-02-04T03:07:31;102715.66;;;7.74;78.92
48244;BME280;34053;51.088;6.572;2023-02-04T03:10:03;102718.41;;;7.80;78.72
48244;BME280;34053;51.088;6.572;2023-02-04T03:12:33;102723.31;;;7.62;79.53
48244;BME280;34053;51.088;6.572;2023-02-04T03:15:04;102726.25;;;7.33;80.42
48244;BME280;34053;51.088;6.572;2023-02-04T03:17:35;102734.38;;;7.48;80.22
48244;BME280;34053;51.088;6.572;2023-02-04T03:20:07;102724.25;;;7.67;79.77
48244;BME280;34053;51.088;6.572;2023-02-04T03:22:38;102722.63;;;7.72;79.45
48244;BME280;34053;51.088;6.572;2023-02-04T03:25:08;102714.88;;;7.78;79.36
48244;BME280;34053;51.088;6.572;2023-02-04T03:27:39;102710.59;;;7.82;79.07
48244;BME280;34053;51.088;6.572;2023-02-04T03:30:09;102719.81;;;7.61;79.28
48244;BME280;34053;51.088;6.572;2023-02-04T03:32:40;102722.22;;;7.50;79.64
48244;BME280;34053;51.088;6.572;2023-02-04T03:35:11;102731.63;;;7.39;80.21
48244;BME280;34053;51.088;6.572;2023-02-04T03:37:41;102721.69;;;7.68;79.59
48244;BME280;34053;51.088;6.572;2023-02-04T03:40:12;102722.66;;;7.75;79.21
48244;BME280;34053;51.088;6.572;2023-02-04T03:42:43;102726.38;;;7.90;78.95
48244;BME280;34053;51.088;6.572;2023-02-04T03:45:13;102728.72;;;7.72;79.34
48244;BME280;34053;51.088;6.572;2023-02-04T03:47:44;102736.38;;;7.60;79.60
48244;BME280;34053;51.088;6.572;2023-02-04T03:50:14;102740.03;;;7.71;79.27
48244;BME280;34053;51.088;6.572;2023-02-04T03:52:45;102742.72;;;7.76;78.91
48244;BME280;34053;51.088;6.572;2023-02-04T03:55:16;102743.03;;;7.46;80.24
48244;BME280;34053;51.088;6.572;2023-02-04T03:57:46;102746.75;;;7.59;80.11
48244;BME280;34053;51.088;6.572;2023-02-04T04:00:17;102743.53;;;7.72;79.83
48244;BME280;34053;51.088;6.572;2023-02-04T04:02:47;102750.56;;;7.76;79.21
48244;BME280;34053;51.088;6.572;2023-02-04T04:05:18;102751.13;;;7.58;79.95
48244;BME280;34053;51.088;6.572;2023-02-04T04:07:49;102741.63;;;7.65;79.66
48244;BME280;34053;51.088;6.572;2023-02-04T04:10:19;102744.38;;;7.71;79.29
48244;BME280;34053;51.088;6.572;2023-02-04T04:12:50;102741.94;;;7.80;79.18
48244;BME280;34053;51.088;6.572;2023-02-04T04:15:20;102743.31;;;7.61;80.19
48244;BME280;34053;51.088;6.572;2023-02-04T04:17:51;102743.13;;;7.49;80.47
48244;BME280;34053;51.088;6.572;2023-02-04T04:20:21;102754.31;;;7.43;80.71
48244;BME280;34053;51.088;6.572;2023-02-04T04:22:56;102752.44;;;7.34;81.50
48244;BME280;34053;51.088;6.572;2023-02-04T04:25:26;102755.44;;;7.57;80.12
48244;BME280;34053;51.088;6.572;2023-02-04T04:27:57;102757.19;;;7.57;80.09
48244;BME280;34053;51.088;6.572;2023-02-04T04:30:27;102764.94;;;7.52;80.44
48244;BME280;34053;51.088;6.572;2023-02-04T04:32:58;102769.25;;;7.50;80.30
48244;BME280;34053;51.088;6.572;2023-02-04T04:35:28;102770.31;;;7.60;80.24
48244;BME280;34053;51.088;6.572;2023-02-04T04:38:00;102769.81;;;7.34;80.71
48244;BME280;34053;51.088;6.572;2023-02-04T04:40:30;102777.34;;;7.18;81.83
48244;BME280;34053;51.088;6.572;2023-02-04T04:43:02;102779.19;;;7.22;81.59
48244;BME280;34053;51.088;6.572;2023-02-04T04:45:32;102777.28;;;7.15;81.34
48244;BME280;34053;51.088;6.572;2023-02-04T04:48:03;102779.13;;;7.19;81.04
48244;BME280;34053;51.088;6.572;2023-02-04T04:50:33;102777.53;;;7.26;81.63
48244;BME280;34053;51.088;6.572;2023-02-04T04:53:04;102776.13;;;7.01;82.27
48244;BME280;34053;51.088;6.572;2023-02-04T04:55:36;102775.38;;;7.06;82.61
48244;BME280;34053;51.088;6.572;2023-02-04T04:58:07;102779.56;;;6.98;82.48
48244;BME280;34053;51.088;6.572;2023-02-04T05:00:38;102771.06;;;7.08;82.06
48244;BME280;34053;51.088;6.572;2023-02-04T05:03:08;102782.50;;;7.15;81.65
48244;BME280;34053;51.088;6.572;2023-02-04T05:05:39;102777.44;;;7.21;81.57
48244;BME280;34053;51.088;6.572;2023-02-04T05:08:10;102781.63;;;7.13;81.83
48244;BME280;34053;51.088;6.572;2023-02-04T05:10:43;102787.25;;;6.92;83.12
48244;BME280;34053;51.088;6.572;2023-02-04T05:13:14;102786.56;;;7.01;82.71
48244;BME280;34053;51.088;6.572;2023-02-04T05:15:45;102788.25;;;6.99;82.36
48244;BME280;34053;51.088;6.572;2023-02-04T05:18:15;102793.97;;;6.81;83.73
48244;BME280;34053;51.088;6.572;2023-02-04T05:20:46;102788.44;;;7.08;82.17
48244;BME280;34053;51.088;6.572;2023-02-04T05:23:16;102796.19;;;7.03;82.24
48244;BME280;34053;51.088;6.572;2023-02-04T05:25:47;102795.03;;;6.90;82.91
48244;BME280;34053;51.088;6.572;2023-02-04T05:28:17;102802.63;;;6.80;83.37
48244;BME280;34053;51.088;6.572;2023-02-04T05:30:47;102811.72;;;6.97;82.98
48244;BME280;34053;51.088;6.572;2023-02-04T05:33:18;102812.78;;;7.07;82.61
48244;BME280;34053;51.088;6.572;2023-02-04T05:35:48;102809.72;;;7.27;81.50
48244;BME280;34053;51.088;6.572;2023-02-04T05:38:19;102811.81;;;7.02;81.86
48244;BME280;34053;51.088;6.572;2023-02-04T05:40:49;102816.44;;;7.15;82.11
48244;BME280;34053;51.088;6.572;2023-02-04T05:43:20;102812.66;;;7.01;82.33
48244;BME280;34053;51.088;6.572;2023-02-04T05:45:50;102818.00;;;7.05;82.13
48244;BME280;34053;51.088;6.572;2023-02-04T05:48:21;102823.31;;;7.10;82.25
48244;BME280;34053;51.088;6.572;2023-02-04T05:50:51;102826.88;;;7.15;81.55
48244;BME280;34053;51.088;6.572;2023-02-04T05:53:22;102829.56;;;7.18;81.33
48244;BME280;34053;51.088;6.572;2023-02-04T05:55:52;102836.63;;;7.22;81.16
48244;BME280;34053;51.088;6.572;2023-02-04T05:58:23;102833.22;;;7.27;80.98
48244;BME280;34053;51.088;6.572;2023-02-04T06:00:53;102843.00;;;7.37;80.92
48244;BME280;34053;51.088;6.572;2023-02-04T06:03:24;102849.00;;;7.33;80.84
48244;BME280;34053;51.088;6.572;2023-02-04T06:05:54;102844.59;;;7.29;81.17
48244;BME280;34053;51.088;6.572;2023-02-04T06:08:25;102855.22;;;7.38;80.70
48244;BME280;34053;51.088;6.572;2023-02-04T06:10:56;102856.91;;;7.36;80.53
48244;BME280;34053;51.088;6.572;2023-02-04T06:13:26;102861.41;;;7.42;80.29
48244;BME280;34053;51.088;6.572;2023-02-04T06:15:56;102861.63;;;7.11;81.78
48244;BME280;34053;51.088;6.572;2023-02-04T06:18:27;102862.91;;;7.32;80.77
48244;BME280;34053;51.088;6.572;2023-02-04T06:20:57;102859.63;;;7.40;80.47
48244;BME280;34053;51.088;6.572;2023-02-04T06:23:28;102868.44;;;7.46;80.02
48244;BME280;34053;51.088;6.572;2023-02-04T06:26:03;102860.50;;;7.41;80.23
48244;BME280;34053;51.088;6.572;2023-02-04T06:28:33;102867.47;;;7.40;80.24
48244;BME280;34053;51.088;6.572;2023-02-04T06:31:04;102870.06;;;7.39;80.62
48244;BME280;34053;51.088;6.572;2023-02-04T06:33:35;102867.56;;;7.45;79.81
48244;BME280;34053;51.088;6.572;2023-02-04T06:36:06;102871.84;;;7.43;80.45
48244;BME280;34053;51.088;6.572;2023-02-04T06:38:39;102867.47;;;7.42;80.36
48244;BME280;34053;51.088;6.572;2023-02-04T06:41:10;102877.94;;;7.42;80.39
48244;BME280;34053;51.088;6.572;2023-02-04T06:43:40;102874.53;;;7.46;80.39
48244;BME280;34053;51.088;6.572;2023-02-04T06:46:10;102871.97;;;7.48;80.26
48244;BME280;34053;51.088;6.572;2023-02-04T06:48:41;102875.44;;;7.48;80.08
48244;BME280;34053;51.088;6.572;2023-02-04T06:51:11;102883.41;;;7.54;80.17
48244;BME280;34053;51.088;6.572;2023-02-04T06:53:42;102876.44;;;7.53;80.10
48244;BME280;34053;51.088;6.572;2023-02-04T06:56:14;102887.72;;;7.52;79.91
48244;BME280;34053;51.088;6.572;2023-02-04T06:58:45;102882.53;;;7.54;79.81
48244;BME280;34053;51.088;6.572;2023-02-04T07:01:15;102882.56;;;7.55;79.67
48244;BME280;34053;51.088;6.572;2023-02-04T07:03:46;102883.41;;;7.54;79.99
48244;BME280;34053;51.088;6.572;2023-02-04T07:06:16;102894.75;;;7.55;79.61
48244;BME280;34053;51.088;6.572;2023-02-04T07:08:47;102890.34;;;7.52;79.80
48244;BME280;34053;51.088;6.572;2023-02-04T07:11:18;102888.69;;;7.57;79.49
48244;BME280;34053;51.088;6.572;2023-02-04T07:13:49;102893.91;;;7.57;79.62
48244;BME280;34053;51.088;6.572;2023-02-04T07:16:20;102892.09;;;7.53;80.18
48244;BME280;34053;51.088;6.572;2023-02-04T07:18:50;102899.03;;;7.51;79.76
48244;BME280;34053;51.088;6.572;2023-02-04T07:21:21;102886.91;;;7.56;79.57
48244;BME280;34053;51.088;6.572;2023-02-04T07:23:51;102890.41;;;7.55;79.39
48244;BME280;34053;51.088;6.572;2023-02-04T07:26:22;102893.06;;;7.59;79.49
48244;BME280;34053;51.088;6.572;2023-02-04T07:28:53;102900.88;;;7.57;79.65
48244;BME280;34053;51.088;6.572;2023-02-04T07:31:23;102907.88;;;7.58;79.34
48244;BME280;34053;51.088;6.572;2023-02-04T07:33:54;102916.59;;;7.59;79.84
48244;BME280;34053;51.088;6.572;2023-02-04T07:36:24;102914.03;;;7.60;79.96
48244;BME280;34053;51.088;6.572;2023-02-04T07:38:55;102913.25;;;7.66;79.47
48244;BME280;34053;51.088;6.572;2023-02-04T07:41:25;102925.53;;;7.70;79.27
48244;BME280;34053;51.088;6.572;2023-02-04T07:43:56;102918.41;;;7.63;79.38
48244;BME280;34053;51.088;6.572;2023-02-04T07:46:27;102918.38;;;7.61;80.15
48244;BME280;34053;51.088;6.572;2023-02-04T07:48:57;102920.81;;;7.52;80.62
48244;BME280;34053;51.088;6.572;2023-02-04T07:51:27;102916.66;;;7.62;80.41
48244;BME280;34053;51.088;6.572;2023-02-04T07:53:58;102926.19;;;7.60;80.20
48244;BME280;34053;51.088;6.572;2023-02-04T07:56:28;102934.88;;;7.59;80.30
48244;BME280;34053;51.088;6.572;2023-02-04T07:58:59;102935.78;;;7.61;80.25
48244;BME280;34053;51.088;6.572;2023-02-04T08:01:29;102943.72;;;7.64;79.96
48244;BME280;34053;51.088;6.572;2023-02-04T08:04:00;102934.94;;;7.62;80.21
48244;BME280;34053;51.088;6.572;2023-02-04T08:06:30;102941.97;;;7.64;80.15
48244;BME280;34053;51.088;6.572;2023-02-04T08:09:01;102948.94;;;7.65;80.37
48244;BME280;34053;51.088;6.572;2023-02-04T08:11:31;102939.31;;;7.63;80.11
48244;BME280;34053;51.088;6.572;2023-02-04T08:14:02;102949.81;;;7.66;80.10
48244;BME280;34053;51.088;6.572;2023-02-04T08:16:32;102952.50;;;7.67;80.28
48244;BME280;34053;51.088;6.572;2023-02-04T08:19:03;102956.91;;;7.71;79.98
48244;BME280;34053;51.088;6.572;2023-02-04T08:21:33;102959.41;;;7.65;80.61
48244;BME280;34053;51.088;6.572;2023-02-04T08:24:04;102961.69;;;7.50;81.81
48244;BME280;34053;51.088;6.572;2023-02-04T08:26:34;102964.50;;;7.59;81.13
48244;BME280;34053;51.088;6.572;2023-02-04T08:29:05;102967.91;;;7.56;81.75
48244;BME280;34053;51.088;6.572;2023-02-04T08:31:36;102970.63;;;7.61;81.16
48244;BME280;34053;51.088;6.572;2023-02-04T08:34:07;102976.63;;;7.55;81.71
48244;BME280;34053;51.088;6.572;2023-02-04T08:36:38;102975.81;;;7.60;81.55
48244;BME280;34053;51.088;6.572;2023-02-04T08:39:08;102982.09;;;7.68;81.52
48244;BME280;34053;51.088;6.572;2023-02-04T08:41:39;102991.78;;;7.72;80.95
48244;BME280;34053;51.088;6.572;2023-02-04T08:44:09;102993.47;;;7.70;81.12
48244;BME280;34053;51.088;6.572;2023-02-04T08:46:40;102992.75;;;7.77;80.99
48244;BME280;34053;51.088;6.572;2023-02-04T08:49:10;102989.38;;;7.83;80.87
48244;BME280;34053;51.088;6.572;2023-02-04T08:51:41;102994.50;;;7.77;81.51
48244;BME280;34053;51.088;6.572;2023-02-04T08:54:12;102989.31;;;7.80;81.27
48244;BME280;34053;51.088;6.572;2023-02-04T08:56:42;102992.03;;;7.84;80.95
48244;BME280;34053;51.088;6.572;2023-02-04T08:59:13;102995.47;;;7.83;81.38
48244;BME280;34053;51.088;6.572;2023-02-04T09:01:43;103005.06;;;7.83;81.99
48244;BME280;34053;51.088;6.572;2023-02-04T09:04:19;103010.31;;;7.84;82.10
48244;BME280;34053;51.088;6.572;2023-02-04T09:06:50;103005.19;;;7.89;81.64
48244;BME280;34053;51.088;6.572;2023-02-04T09:09:21;103011.34;;;7.91;81.79
48244;BME280;34053;51.088;6.572;2023-02-04T09:11:51;103017.31;;;7.85;82.55
48244;BME280;34053;51.088;6.572;2023-02-04T09:14:22;103019.00;;;7.82;82.71
48244;BME280;34053;51.088;6.572;2023-02-04T09:16:53;103019.91;;;7.84;82.91
48244;BME280;34053;51.088;6.572;2023-02-04T09:19:23;103023.31;;;7.81;83.49
48244;BME280;34053;51.088;6.572;2023-02-04T09:21:55;103019.94;;;7.85;83.03
48244;BME280;34053;51.088;6.572;2023-02-04T09:24:25;103023.31;;;7.81;82.69
48244;BME280;34053;51.088;6.572;2023-02-04T09:26:56;103029.53;;;7.85;83.07
48244;BME280;34053;51.088;6.572;2023-02-04T09:29:26;103020.56;;;7.74;83.41
48244;BME280;34053;51.088;6.572;2023-02-04T09:31:57;103031.25;;;7.86;82.99
48244;BME280;34053;51.088;6.572;2023-02-04T09:34:27;103029.31;;;7.76;83.36
48244;BME280;34053;51.088;6.572;2023-02-04T09:36:58;103028.59;;;7.83;82.95
48244;BME280;34053;51.088;6.572;2023-02-04T09:39:28;103033.84;;;7.84;83.24
48244;BME280;34053;51.088;6.572;2023-02-04T09:41:59;103035.00;;;7.97;82.60
48244;BME280;34053;51.088;6.572;2023-02-04T09:44:29;103029.56;;;7.88;82.93
48244;BME280;34053;51.088;6.572;2023-02-04T09:47:00;103027.78;;;7.85;82.88
48244;BME280;34053;51.088;6.572;2023-02-04T09:49:31;103029.94;;;8.05;82.56
48244;BME280;34053;51.088;6.572;2023-02-04T09:52:02;103034.88;;;7.93;82.46
48244;BME280;34053;51.088;6.572;2023-02-04T09:54:32;103031.88;;;7.74;82.42
48244;BME280;34053;51.088;6.572;2023-02-04T09:57:12;103033.81;;;7.83;82.44
48244;BME280;34053;51.088;6.572;2023-02-04T09:59:44;103036.59;;;7.91;82.46
48244;BME280;34053;51.088;6.572;2023-02-04T10:02:25;103037.50;;;7.93;81.54
48244;BME280;34053;51.088;6.572;2023-02-04T10:04:56;103042.00;;;8.00;82.08
48244;BME280;34053;51.088;6.572;2023-02-04T10:07:27;103038.72;;;8.09;81.65
48244;BME280;34053;51.088;6.572;2023-02-04T10:09:59;103043.16;;;8.14;81.99
48244;BME280;34053;51.088;6.572;2023-02-04T10:12:29;103052.66;;;8.09;81.57
48244;BME280;34053;51.088;6.572;2023-02-04T10:15:01;103049.19;;;8.09;81.86
48244;BME280;34053;51.088;6.572;2023-02-04T10:17:33;103051.75;;;8.07;80.94
48244;BME280;34053;51.088;6.572;2023-02-04T10:20:18;103054.69;;;7.81;80.70
48244;BME280;34053;51.088;6.572;2023-02-04T10:22:51;103060.19;;;7.94;81.20
48244;BME280;34053;51.088;6.572;2023-02-04T10:25:24;103054.41;;;8.09;80.96
48244;BME280;34053;51.088;6.572;2023-02-04T10:27:59;103055.66;;;8.28;80.64
48244;BME280;34053;51.088;6.572;2023-02-04T10:30:36;103055.63;;;8.26;80.96
48244;BME280;34053;51.088;6.572;2023-02-04T10:33:23;103048.88;;;8.39;80.93
48244;BME280;34053;51.088;6.572;2023-02-04T10:35:55;103059.28;;;8.34;80.93
48244;BME280;34053;51.088;6.572;2023-02-04T10:38:25;103055.66;;;8.28;80.16
48244;BME280;34053;51.088;6.572;2023-02-04T10:41:00;103050.91;;;8.08;79.99
48244;BME280;34053;51.088;6.572;2023-02-04T10:43:31;103044.00;;;8.12;79.68
48244;BME280;34053;51.088;6.572;2023-02-04T10:46:03;103049.78;;;8.38;80.50
48244;BME280;34053;51.088;6.572;2023-02-04T10:48:40;103043.59;;;8.34;80.65
48244;BME280;34053;51.088;6.572;2023-02-04T10:51:12;103048.66;;;8.25;79.21
48244;BME280;34053;51.088;6.572;2023-02-04T10:53:43;103047.16;;;8.40;79.01
48244;BME280;34053;51.088;6.572;2023-02-04T10:56:32;103039.41;;;8.43;79.80
48244;BME280;34053;51.088;6.572;2023-02-04T10:59:03;103046.03;;;8.25;78.04
48244;BME280;34053;51.088;6.572;2023-02-04T11:01:34;103035.09;;;8.46;79.82
48244;BME280;34053;51.088;6.572;2023-02-04T11:04:09;103043.25;;;8.62;79.28
48244;BME280;34053;51.088;6.572;2023-02-04T11:06:42;103042.56;;;8.72;79.27
48244;BME280;34053;51.088;6.572;2023-02-04T11:09:13;103047.88;;;8.77;79.71
48244;BME280;34053;51.088;6.572;2023-02-04T11:11:48;103047.94;;;8.80;79.27
48244;BME280;34053;51.088;6.572;2023-02-04T11:14:24;103050.56;;;8.81;79.50
48244;BME280;34053;51.088;6.572;2023-02-04T11:16:56;103048.94;;;8.88;79.80
48244;BME280;34053;51.088;6.572;2023-02-04T11:19:39;103042.09;;;8.95;79.79
48244;BME280;34053;51.088;6.572;2023-02-04T11:22:23;103050.91;;;9.00;78.82
48244;BME280;34053;51.088;6.572;2023-02-04T11:24:54;103047.34;;;8.96;78.64
48244;BME280;34053;51.088;6.572;2023-02-04T11:27:37;103055.97;;;8.91;76.46
48244;BME280;34053;51.088;6.572;2023-02-04T11:30:21;103049.91;;;8.93;78.30
48244;BME280;34053;51.088;6.572;2023-02-04T11:33:03;103054.53;;;9.10;78.71
48244;BME280;34053;51.088;6.572;2023-02-04T11:35:34;103050.16;;;9.07;77.22
48244;BME280;34053;51.088;6.572;2023-02-04T11:38:23;103051.66;;;8.93;77.35
48244;BME280;34053;51.088;6.572;2023-02-04T11:40:55;103045.81;;;9.08;77.79
48244;BME280;34053;51.088;6.572;2023-02-04T11:43:26;103051.81;;;9.02;77.28
48244;BME280;34053;51.088;6.572;2023-02-04T11:46:06;103050.19;;;9.10;78.13
48244;BME280;34053;51.088;6.572;2023-02-04T11:48:40;103050.91;;;9.02;75.86
48244;BME280;34053;51.088;6.572;2023-02-04T11:51:15;103046.81;;;9.18;78.32
48244;BME280;34053;51.088;6.572;2023-02-04T11:53:51;103049.50;;;9.21;77.98
48244;BME280;34053;51.088;6.572;2023-02-04T11:56:22;103056.69;;;9.33;78.22
48244;BME280;34053;51.088;6.572;2023-02-04T11:58:57;103056.56;;;9.26;76.95
48244;BME280;34053;51.088;6.572;2023-02-04T12:01:32;103048.69;;;9.25;76.88
48244;BME280;34053;51.088;6.572;2023-02-04T12:04:07;103053.19;;;9.34;77.72
48244;BME280;34053;51.088;6.572;2023-02-04T12:07:02;103042.72;;;9.35;76.82
48244;BME280;34053;51.088;6.572;2023-02-04T12:09:32;103039.97;;;9.27;76.42
48244;BME280;34053;51.088;6.572;2023-02-04T12:12:03;103043.50;;;9.28;76.27
48244;BME280;34053;51.088;6.572;2023-02-04T12:14:36;103050.59;;;9.34;74.93
48244;BME280;34053;51.088;6.572;2023-02-04T12:17:19;103042.75;;;9.37;76.13
48244;BME280;34053;51.088;6.572;2023-02-04T12:19:49;103038.41;;;9.37;74.83
48244;BME280;34053;51.088;6.572;2023-02-04T12:22:20;103048.91;;;9.40;73.90
48244;BME280;34053;51.088;6.572;2023-02-04T12:24:51;103050.75;;;9.48;75.41
48244;BME280;34053;51.088;6.572;2023-02-04T12:27:24;103053.38;;;9.48;73.02
48244;BME280;34053;51.088;6.572;2023-02-04T12:29:54;103060.44;;;9.52;72.82
48244;BME280;34053;51.088;6.572;2023-02-04T12:32:25;103047.28;;;9.49;73.02
48244;BME280;34053;51.088;6.572;2023-02-04T12:34:55;103042.09;;;9.52;75.37
48244;BME280;34053;51.088;6.572;2023-02-04T12:37:26;103050.81;;;9.51;74.42
48244;BME280;34053;51.088;6.572;2023-02-04T12:39:57;103053.59;;;9.60;74.93
48244;BME280;34053;51.088;6.572;2023-02-04T12:42:27;103051.88;;;9.62;74.97
48244;BME280;34053;51.088;6.572;2023-02-04T12:44:58;103054.50;;;9.65;74.47
48244;BME280;34053;51.088;6.572;2023-02-04T12:47:28;103056.34;;;9.71;74.80
48244;BME280;34053;51.088;6.572;2023-02-04T12:49:59;103061.38;;;9.54;72.74
48244;BME280;34053;51.088;6.572;2023-02-04T12:52:32;103055.34;;;9.63;72.78
48244;BME280;34053;51.088;6.572;2023-02-04T12:55:03;103061.53;;;9.68;73.06
48244;BME280;34053;51.088;6.572;2023-02-04T12:57:36;103063.28;;;9.66;70.88
48244;BME280;34053;51.088;6.572;2023-02-04T13:00:07;103061.47;;;9.63;70.88
48244;BME280;34053;51.088;6.572;2023-02-04T13:02:38;103059.88;;;9.73;70.12
48244;BME280;34053;51.088;6.572;2023-02-04T13:05:09;103060.03;;;9.84;71.74
48244;BME280;34053;51.088;6.572;2023-02-04T13:07:40;103062.56;;;9.79;70.59
48244;BME280;34053;51.088;6.572;2023-02-04T13:10:12;103059.03;;;9.77;71.35
48244;BME280;34053;51.088;6.572;2023-02-04T13:12:43;103051.28;;;9.83;70.62
48244;BME280;34053;51.088;6.572;2023-02-04T13:15:19;103051.50;;;10.00;71.55
48244;BME280;34053;51.088;6.572;2023-02-04T13:17:53;103047.91;;;9.92;71.86
48244;BME280;34053;51.088;6.572;2023-02-04T13:20:23;103052.28;;;9.93;71.09
48244;BME280;34053;51.088;6.572;2023-02-04T13:22:57;103051.38;;;9.91;68.02
48244;BME280;34053;51.088;6.572;2023-02-04T13:25:27;103043.50;;;9.89;67.97